sensor_id;sensor_type;location;lat;lon;timestamp;temperature;humidity
7576;DHT22;3829;50.798;4.358;2023-07-31T00:00:06;17.30;99.90
7576;DHT22;3829;50.798;4.358;2023-07-31T00:02:31;17.40;99.90
7576;DHT22;3829;50.798;4.358;2023-07-31T00:04:57;17.40;99.90
7576;DHT22;3829;50.798;4.358;2023-07-31T00:07:23;17.50;99.90
7576;DHT22;3829;50.798;4.358;2023-07-31T00:09:48;17.50;99.90
7576;DHT22;3829;50.798;4.358;2023-07-31T00:12:14;17.60;99.90
7576;DHT22;3829;50.798;4.358;2023-07-31T00:14:39;17.50;99.90
7576;DHT22;3829;50.798;4.358;2023-07-31T00:17:05;17.50;99.90
7576;DHT22;3829;50.798;4.358;2023-07-31T00:19:31;17.50;99.90
7576;DHT22;3829;50.798;4.358;2023-07-31T00:21:56;17.60;99.90
7576;DHT22;3829;50.798;4.358;2023-07-31T00:24:22;17.50;99.90
7576;DHT22;3829;50.798;4.358;2023-07-31T00:26:47;17.50;99.90
7576;DHT22;3829;50.798;4.358;2023-07-31T00:29:13;17.40;99.90
7576;DHT22;3829;50.798;4.358;2023-07-31T00:31:38;17.40;99.90
7576;DHT22;3829;50.798;4.358;2023-07-31T00:34:04;17.30;99.90
7576;DHT22;3829;50.798;4.358;2023-07-31T00:36:30;17.20;99.90
7576;DHT22;3829;50.798;4.358;2023-07-31T00:38:55;17.20;99.90
7576;DHT22;3829;50.798;4.358;2023-07-31T00:41:21;17.10;99.90
7576;DHT22;3829;50.798;4.358;2023-07-31T00:43:46;17.20;99.90
7576;DHT22;3829;50.798;4.358;2023-07-31T00:46:12;17.20;99.90
7576;DHT22;3829;50.798;4.358;2023-07-31T00:48:39;17.20;99.90
7576;DHT22;3829;50.798;4.358;2023-07-31T00:51:06;17.30;99.90
7576;DHT22;3829;50.798;4.358;2023-07-31T00:53:32;17.30;99.90
7576;DHT22;3829;50.798;4.358;2023-07-31T00:55:58;17.20;99.90
7576;DHT22;3829;50.798;4.358;2023-07-31T00:58:23;17.10;99.90
7576;DHT22;3829;50.798;4.358;2023-07-31T01:00:49;17.20;99.90
7576;DHT22;3829;50.798;4.358;2023-07-31T01:03:16;17.10;99.90
7576;DHT22;3829;50.798;4.358;2023-07-31T01:05:58;17.20;99.90
7576;DHT22;3829;50.798;4.358;2023-07-31T01:08:40;17.10;99.90
7576;DHT22;3829;50.798;4.358;2023-07-31T01:11:17;17.20;99.90
7576;DHT22;3829;50.798;4.358;2023-07-31T01:13:45;17.10;99.90
7576;DHT22;3829;50.798;4.358;2023-07-31T01:16:12;17.10;99.90
7576;DHT22;3829;50.798;4.358;2023-07-31T01:18:37;17.10;99.90
7576;DHT22;3829;50.798;4.358;2023-07-31T01:21:14;17.20;99.90
7576;DHT22;3829;50.798;4.358;2023-07-31T01:26:34;17.20;99.90
7576;DHT22;3829;50.798;4.358;2023-07-31T01:29:07;17.20;99.90
7576;DHT22;3829;50.798;4.358;2023-07-31T01:31:36;17.20;99.90
7576;DHT22;3829;50.798;4.358;2023-07-31T01:34:03;17.30;99.90
7576;DHT22;3829;50.798;4.358;2023-07-31T01:36:30;17.20;99.90
7576;DHT22;3829;50.798;4.358;2023-07-31T01:38:59;17.30;99.90
7576;DHT22;3829;50.798;4.358;2023-07-31T01:41:25;17.30;99.90
7576;DHT22;3829;50.798;4.358;2023-07-31T01:43:51;17.30;99.90
7576;DHT22;3829;50.798;4.358;2023-07-31T01:46:17;17.30;99.90
7576;DHT22;3829;50.798;4.358;2023-07-31T01:48:42;17.30;99.90
7576;DHT22;3829;50.798;4.358;2023-07-31T01:51:08;17.40;99.90
7576;DHT22;3829;50.798;4.358;2023-07-31T01:53:33;17.40;99.90
7576;DHT22;3829;50.798;4.358;2023-07-31T01:55:59;17.40;99.90
7576;DHT22;3829;50.798;4.358;2023-07-31T01:58:25;17.40;99.90
7576;DHT22;3829;50.798;4.358;2023-07-31T02:00:50;17.40;99.90
7576;DHT22;3829;50.798;4.358;2023-07-31T02:03:16;17.40;99.90
7576;DHT22;3829;50.798;4.358;2023-07-31T02:05:49;17.30;99.90
7576;DHT22;3829;50.798;4.358;2023-07-31T02:08:15;17.40;99.90
7576;DHT22;3829;50.798;4.358;2023-07-31T02:10:41;17.30;99.90
7576;DHT22;3829;50.798;4.358;2023-07-31T02:13:07;17.30;99.90
7576;DHT22;3829;50.798;4.358;2023-07-31T02:15:33;17.30;99.90
7576;DHT22;3829;50.798;4.358;2023-07-31T02:17:58;17.40;99.90
7576;DHT22;3829;50.798;4.358;2023-07-31T02:20:24;17.40;99.90
7576;DHT22;3829;50.798;4.358;2023-07-31T02:22:50;17.30;99.90
7576;DHT22;3829;50.798;4.358;2023-07-31T02:25:15;17.30;99.90
7576;DHT22;3829;50.798;4.358;2023-07-31T02:27:41;17.40;99.90
7576;DHT22;3829;50.798;4.358;2023-07-31T02:30:07;17.30;99.90
7576;DHT22;3829;50.798;4.358;2023-07-31T02:32:33;17.30;99.90
7576;DHT22;3829;50.798;4.358;2023-07-31T02:34:58;17.20;99.90
7576;DHT22;3829;50.798;4.358;2023-07-31T02:37:25;17.30;99.90
7576;DHT22;3829;50.798;4.358;2023-07-31T02:39:51;17.30;99.90
7576;DHT22;3829;50.798;4.358;2023-07-31T02:42:17;17.40;99.90
7576;DHT22;3829;50.798;4.358;2023-07-31T02:44:42;17.30;99.90
7576;DHT22;3829;50.798;4.358;2023-07-31T02:47:08;17.30;99.90
7576;DHT22;3829;50.798;4.358;2023-07-31T02:49:34;17.30;99.90
7576;DHT22;3829;50.798;4.358;2023-07-31T02:51:59;17.30;99.90
7576;DHT22;3829;50.798;4.358;2023-07-31T02:54:25;17.30;99.90
7576;DHT22;3829;50.798;4.358;2023-07-31T02:56:50;17.20;99.90
7576;DHT22;3829;50.798;4.358;2023-07-31T02:59:17;17.30;99.90
7576;DHT22;3829;50.798;4.358;2023-07-31T03:01:42;17.40;99.90
7576;DHT22;3829;50.798;4.358;2023-07-31T03:04:08;17.40;99.90
7576;DHT22;3829;50.798;4.358;2023-07-31T03:06:33;17.40;99.90
7576;DHT22;3829;50.798;4.358;2023-07-31T03:08:59;17.40;99.90
7576;DHT22;3829;50.798;4.358;2023-07-31T03:11:25;17.30;99.90
7576;DHT22;3829;50.798;4.358;2023-07-31T03:13:50;17.40;99.90
7576;DHT22;3829;50.798;4.358;2023-07-31T03:16:16;17.40;99.90
7576;DHT22;3829;50.798;4.358;2023-07-31T03:18:41;17.30;99.90
7576;DHT22;3829;50.798;4.358;2023-07-31T03:21:07;17.30;99.90
7576;DHT22;3829;50.798;4.358;2023-07-31T03:23:32;17.20;99.90
7576;DHT22;3829;50.798;4.358;2023-07-31T03:26:03;17.20;99.90
7576;DHT22;3829;50.798;4.358;2023-07-31T03:28:29;17.20;99.90
7576;DHT22;3829;50.798;4.358;2023-07-31T03:30:55;17.20;99.90
7576;DHT22;3829;50.798;4.358;2023-07-31T03:33:20;17.20;99.90
7576;DHT22;3829;50.798;4.358;2023-07-31T03:35:46;17.20;99.90
7576;DHT22;3829;50.798;4.358;2023-07-31T03:38:12;17.20;99.90
7576;DHT22;3829;50.798;4.358;2023-07-31T03:40:37;17.20;99.90
7576;DHT22;3829;50.798;4.358;2023-07-31T03:43:03;17.20;99.90
7576;DHT22;3829;50.798;4.358;2023-07-31T03:45:28;17.10;99.90
7576;DHT22;3829;50.798;4.358;2023-07-31T03:47:54;17.10;99.90
7576;DHT22;3829;50.798;4.358;2023-07-31T03:50:20;17.10;99.90
7576;DHT22;3829;50.798;4.358;2023-07-31T03:52:46;17.10;99.90
7576;DHT22;3829;50.798;4.358;2023-07-31T03:55:11;17.00;99.90
7576;DHT22;3829;50.798;4.358;2023-07-31T03:57:37;17.00;99.90
7576;DHT22;3829;50.798;4.358;2023-07-31T04:00:03;17.00;99.90
7576;DHT22;3829;50.798;4.358;2023-07-31T04:02:29;17.00;99.90
7576;DHT22;3829;50.798;4.358;2023-07-31T04:04:54;16.90;99.90
7576;DHT22;3829;50.798;4.358;2023-07-31T04:07:20;17.00;99.90
7576;DHT22;3829;50.798;4.358;2023-07-31T04:09:45;16.90;99.90
7576;DHT22;3829;50.798;4.358;2023-07-31T04:12:11;16.90;99.90
7576;DHT22;3829;50.798;4.358;2023-07-31T04:14:37;16.80;99.90
7576;DHT22;3829;50.798;4.358;2023-07-31T04:17:02;16.80;99.90
7576;DHT22;3829;50.798;4.358;2023-07-31T04:19:28;16.90;99.90
7576;DHT22;3829;50.798;4.358;2023-07-31T04:21:54;16.90;99.90
7576;DHT22;3829;50.798;4.358;2023-07-31T04:24:19;16.80;99.90
7576;DHT22;3829;50.798;4.358;2023-07-31T04:26:50;16.80;99.90
7576;DHT22;3829;50.798;4.358;2023-07-31T04:29:16;16.80;99.90
7576;DHT22;3829;50.798;4.358;2023-07-31T04:31:42;16.80;99.90
7576;DHT22;3829;50.798;4.358;2023-07-31T04:34:07;16.80;99.90
7576;DHT22;3829;50.798;4.358;2023-07-31T04:36:34;16.90;99.90
7576;DHT22;3829;50.798;4.358;2023-07-31T04:38:59;16.90;99.90
7576;DHT22;3829;50.798;4.358;2023-07-31T04:41:25;16.80;99.90
7576;DHT22;3829;50.798;4.358;2023-07-31T04:43:51;16.90;99.90
7576;DHT22;3829;50.798;4.358;2023-07-31T04:46:16;16.90;99.90
7576;DHT22;3829;50.798;4.358;2023-07-31T04:48:43;17.00;99.90
7576;DHT22;3829;50.798;4.358;2023-07-31T04:51:08;17.00;99.90
7576;DHT22;3829;50.798;4.358;2023-07-31T04:53:35;17.00;99.90
7576;DHT22;3829;50.798;4.358;2023-07-31T04:56:00;16.90;99.90
7576;DHT22;3829;50.798;4.358;2023-07-31T04:58:26;16.90;99.90
7576;DHT22;3829;50.798;4.358;2023-07-31T05:00:51;16.90;99.90
7576;DHT22;3829;50.798;4.358;2023-07-31T05:03:17;16.80;99.90
7576;DHT22;3829;50.798;4.358;2023-07-31T05:05:43;16.70;99.90
7576;DHT22;3829;50.798;4.358;2023-07-31T05:08:08;16.80;99.90
7576;DHT22;3829;50.798;4.358;2023-07-31T05:10:34;16.80;99.90
7576;DHT22;3829;50.798;4.358;2023-07-31T05:12:59;16.70;99.90
7576;DHT22;3829;50.798;4.358;2023-07-31T05:15:25;16.70;99.90
7576;DHT22;3829;50.798;4.358;2023-07-31T05:17:51;16.60;99.90
7576;DHT22;3829;50.798;4.358;2023-07-31T05:20:17;16.60;99.90
7576;DHT22;3829;50.798;4.358;2023-07-31T05:22:42;16.60;99.90
7576;DHT22;3829;50.798;4.358;2023-07-31T05:25:08;16.60;99.90
7576;DHT22;3829;50.798;4.358;2023-07-31T05:27:34;16.60;99.90
7576;DHT22;3829;50.798;4.358;2023-07-31T05:29:59;16.60;99.90
7576;DHT22;3829;50.798;4.358;2023-07-31T05:32:25;16.60;99.90
7576;DHT22;3829;50.798;4.358;2023-07-31T05:34:52;16.60;99.90
7576;DHT22;3829;50.798;4.358;2023-07-31T05:37:18;16.60;99.90
7576;DHT22;3829;50.798;4.358;2023-07-31T05:39:44;16.60;99.90
7576;DHT22;3829;50.798;4.358;2023-07-31T05:42:10;16.70;99.90
7576;DHT22;3829;50.798;4.358;2023-07-31T05:44:35;16.60;99.90
7576;DHT22;3829;50.798;4.358;2023-07-31T05:47:01;16.60;99.90
7576;DHT22;3829;50.798;4.358;2023-07-31T05:49:26;16.60;99.90
7576;DHT22;3829;50.798;4.358;2023-07-31T05:51:52;16.50;99.90
7576;DHT22;3829;50.798;4.358;2023-07-31T05:54:17;16.50;99.90
7576;DHT22;3829;50.798;4.358;2023-07-31T05:56:43;16.50;99.90
7576;DHT22;3829;50.798;4.358;2023-07-31T05:59:11;16.60;99.90
7576;DHT22;3829;50.798;4.358;2023-07-31T06:01:37;16.60;99.90
7576;DHT22;3829;50.798;4.358;2023-07-31T06:04:03;16.50;99.90
7576;DHT22;3829;50.798;4.358;2023-07-31T06:06:29;16.60;99.90
7576;DHT22;3829;50.798;4.358;2023-07-31T06:08:54;16.50;99.90
7576;DHT22;3829;50.798;4.358;2023-07-31T06:11:21;16.60;99.90
7576;DHT22;3829;50.798;4.358;2023-07-31T06:13:47;16.60;99.90
7576;DHT22;3829;50.798;4.358;2023-07-31T06:16:14;16.60;99.90
7576;DHT22;3829;50.798;4.358;2023-07-31T06:18:41;16.50;99.90
7576;DHT22;3829;50.798;4.358;2023-07-31T06:21:06;16.60;99.90
7576;DHT22;3829;50.798;4.358;2023-07-31T06:23:32;16.60;99.90
7576;DHT22;3829;50.798;4.358;2023-07-31T06:25:57;16.60;99.90
7576;DHT22;3829;50.798;4.358;2023-07-31T06:28:32;16.70;99.90
7576;DHT22;3829;50.798;4.358;2023-07-31T06:30:58;16.70;99.90
7576;DHT22;3829;50.798;4.358;2023-07-31T06:33:24;16.60;99.90
7576;DHT22;3829;50.798;4.358;2023-07-31T06:35:50;16.60;99.90
7576;DHT22;3829;50.798;4.358;2023-07-31T06:38:18;16.60;99.90
7576;DHT22;3829;50.798;4.358;2023-07-31T06:40:44;16.60;99.90
7576;DHT22;3829;50.798;4.358;2023-07-31T06:43:09;16.70;99.90
7576;DHT22;3829;50.798;4.358;2023-07-31T06:45:36;16.70;99.90
7576;DHT22;3829;50.798;4.358;2023-07-31T06:48:02;16.80;99.90
7576;DHT22;3829;50.798;4.358;2023-07-31T06:50:30;16.80;99.90
7576;DHT22;3829;50.798;4.358;2023-07-31T06:52:56;16.90;99.90
7576;DHT22;3829;50.798;4.358;2023-07-31T06:55:22;17.10;99.90
7576;DHT22;3829;50.798;4.358;2023-07-31T06:57:49;17.30;99.90
7576;DHT22;3829;50.798;4.358;2023-07-31T07:00:15;17.50;99.90
7576;DHT22;3829;50.798;4.358;2023-07-31T07:02:41;17.60;99.90
7576;DHT22;3829;50.798;4.358;2023-07-31T07:05:07;17.70;99.90
7576;DHT22;3829;50.798;4.358;2023-07-31T07:07:34;17.60;99.90
7576;DHT22;3829;50.798;4.358;2023-07-31T07:10:00;17.60;99.90
7576;DHT22;3829;50.798;4.358;2023-07-31T07:12:28;17.60;99.90
7576;DHT22;3829;50.798;4.358;2023-07-31T07:14:54;17.70;99.90
7576;DHT22;3829;50.798;4.358;2023-07-31T07:17:20;17.80;99.90
7576;DHT22;3829;50.798;4.358;2023-07-31T07:19:45;17.70;99.90
7576;DHT22;3829;50.798;4.358;2023-07-31T07:22:13;17.70;99.90
7576;DHT22;3829;50.798;4.358;2023-07-31T07:24:38;17.80;99.90
7576;DHT22;3829;50.798;4.358;2023-07-31T07:27:04;17.70;99.90
7576;DHT22;3829;50.798;4.358;2023-07-31T07:29:30;17.70;99.90
7576;DHT22;3829;50.798;4.358;2023-07-31T07:31:56;17.60;99.90
7576;DHT22;3829;50.798;4.358;2023-07-31T07:34:24;17.70;99.90
7576;DHT22;3829;50.798;4.358;2023-07-31T07:36:49;17.70;99.90
7576;DHT22;3829;50.798;4.358;2023-07-31T07:39:15;17.70;99.90
7576;DHT22;3829;50.798;4.358;2023-07-31T07:41:40;17.70;99.90
7576;DHT22;3829;50.798;4.358;2023-07-31T07:44:07;17.70;99.90
7576;DHT22;3829;50.798;4.358;2023-07-31T07:46:32;17.60;99.90
7576;DHT22;3829;50.798;4.358;2023-07-31T07:48:58;17.60;99.90
7576;DHT22;3829;50.798;4.358;2023-07-31T07:51:23;17.70;99.90
7576;DHT22;3829;50.798;4.358;2023-07-31T07:53:49;17.70;99.90
7576;DHT22;3829;50.798;4.358;2023-07-31T07:56:14;17.80;99.90
7576;DHT22;3829;50.798;4.358;2023-07-31T07:58:40;17.80;99.90
7576;DHT22;3829;50.798;4.358;2023-07-31T08:01:06;17.80;99.90
7576;DHT22;3829;50.798;4.358;2023-07-31T08:03:31;17.90;99.90
7576;DHT22;3829;50.798;4.358;2023-07-31T08:05:59;17.80;99.90
7576;DHT22;3829;50.798;4.358;2023-07-31T08:08:24;17.70;99.90
7576;DHT22;3829;50.798;4.358;2023-07-31T08:10:50;17.80;99.90
7576;DHT22;3829;50.798;4.358;2023-07-31T08:13:15;17.70;99.90
7576;DHT22;3829;50.798;4.358;2023-07-31T08:15:41;17.80;99.90
7576;DHT22;3829;50.798;4.358;2023-07-31T08:18:08;17.70;99.90
7576;DHT22;3829;50.798;4.358;2023-07-31T08:20:33;17.80;99.90
7576;DHT22;3829;50.798;4.358;2023-07-31T08:22:59;18.00;99.90
7576;DHT22;3829;50.798;4.358;2023-07-31T08:25:24;17.90;99.90
7576;DHT22;3829;50.798;4.358;2023-07-31T08:27:50;17.70;99.90
7576;DHT22;3829;50.798;4.358;2023-07-31T08:30:18;17.50;99.90
7576;DHT22;3829;50.798;4.358;2023-07-31T08:32:44;17.40;99.90
7576;DHT22;3829;50.798;4.358;2023-07-31T08:35:10;17.40;99.90
7576;DHT22;3829;50.798;4.358;2023-07-31T08:37:37;17.40;99.90
7576;DHT22;3829;50.798;4.358;2023-07-31T08:40:03;17.40;99.90
7576;DHT22;3829;50.798;4.358;2023-07-31T08:42:29;17.40;99.90
7576;DHT22;3829;50.798;4.358;2023-07-31T08:44:56;17.40;99.90
7576;DHT22;3829;50.798;4.358;2023-07-31T08:47:22;17.40;99.90
7576;DHT22;3829;50.798;4.358;2023-07-31T08:49:49;17.40;99.90
7576;DHT22;3829;50.798;4.358;2023-07-31T08:52:15;17.40;99.90
7576;DHT22;3829;50.798;4.358;2023-07-31T08:54:41;17.60;99.90
7576;DHT22;3829;50.798;4.358;2023-07-31T08:57:07;17.70;99.90
7576;DHT22;3829;50.798;4.358;2023-07-31T08:59:34;17.60;99.90
7576;DHT22;3829;50.798;4.358;2023-07-31T09:02:06;17.70;99.90
7576;DHT22;3829;50.798;4.358;2023-07-31T09:04:33;17.80;99.90
7576;DHT22;3829;50.798;4.358;2023-07-31T09:07:01;17.90;99.90
7576;DHT22;3829;50.798;4.358;2023-07-31T09:09:29;17.90;99.90
7576;DHT22;3829;50.798;4.358;2023-07-31T09:11:55;18.20;99.90
7576;DHT22;3829;50.798;4.358;2023-07-31T09:14:21;18.30;99.90
7576;DHT22;3829;50.798;4.358;2023-07-31T09:16:55;18.20;99.90
7576;DHT22;3829;50.798;4.358;2023-07-31T09:19:26;18.20;99.90
7576;DHT22;3829;50.798;4.358;2023-07-31T09:21:52;18.40;99.90
7576;DHT22;3829;50.798;4.358;2023-07-31T09:24:27;18.30;99.90
7576;DHT22;3829;50.798;4.358;2023-07-31T09:26:55;18.60;99.90
7576;DHT22;3829;50.798;4.358;2023-07-31T09:29:22;18.50;99.90
7576;DHT22;3829;50.798;4.358;2023-07-31T09:31:47;18.50;99.90
7576;DHT22;3829;50.798;4.358;2023-07-31T09:34:13;18.50;99.90
7576;DHT22;3829;50.798;4.358;2023-07-31T09:36:41;18.40;99.90
7576;DHT22;3829;50.798;4.358;2023-07-31T09:39:09;18.20;99.90
7576;DHT22;3829;50.798;4.358;2023-07-31T09:41:40;17.90;99.90
7576;DHT22;3829;50.798;4.358;2023-07-31T09:44:06;17.90;99.90
7576;DHT22;3829;50.798;4.358;2023-07-31T09:46:32;17.80;99.90
7576;DHT22;3829;50.798;4.358;2023-07-31T09:49:10;17.90;99.90
7576;DHT22;3829;50.798;4.358;2023-07-31T09:51:37;18.00;99.90
7576;DHT22;3829;50.798;4.358;2023-07-31T09:54:10;18.00;99.90
7576;DHT22;3829;50.798;4.358;2023-07-31T09:56:41;17.80;99.90
7576;DHT22;3829;50.798;4.358;2023-07-31T09:59:08;17.80;99.90
7576;DHT22;3829;50.798;4.358;2023-07-31T10:01:35;17.70;99.90
7576;DHT22;3829;50.798;4.358;2023-07-31T10:04:01;17.60;99.90
7576;DHT22;3829;50.798;4.358;2023-07-31T10:06:28;17.70;99.90
7576;DHT22;3829;50.798;4.358;2023-07-31T10:08:54;17.90;99.90
7576;DHT22;3829;50.798;4.358;2023-07-31T10:11:22;17.90;99.90
7576;DHT22;3829;50.798;4.358;2023-07-31T10:13:50;18.10;99.90
7576;DHT22;3829;50.798;4.358;2023-07-31T10:16:17;18.10;99.90
7576;DHT22;3829;50.798;4.358;2023-07-31T10:18:43;18.20;99.90
7576;DHT22;3829;50.798;4.358;2023-07-31T10:21:09;18.10;99.90
7576;DHT22;3829;50.798;4.358;2023-07-31T10:23:36;18.40;99.90
7576;DHT22;3829;50.798;4.358;2023-07-31T10:26:02;18.50;99.90
7576;DHT22;3829;50.798;4.358;2023-07-31T10:28:29;18.70;99.90
7576;DHT22;3829;50.798;4.358;2023-07-31T10:30:56;18.80;99.90
7576;DHT22;3829;50.798;4.358;2023-07-31T10:33:22;19.00;99.90
7576;DHT22;3829;50.798;4.358;2023-07-31T10:35:48;19.00;99.90
7576;DHT22;3829;50.798;4.358;2023-07-31T10:38:14;19.00;99.90
7576;DHT22;3829;50.798;4.358;2023-07-31T10:40:40;19.00;99.90
7576;DHT22;3829;50.798;4.358;2023-07-31T10:43:06;18.80;99.90
7576;DHT22;3829;50.798;4.358;2023-07-31T10:45:37;18.70;99.90
7576;DHT22;3829;50.798;4.358;2023-07-31T10:48:05;18.90;99.90
7576;DHT22;3829;50.798;4.358;2023-07-31T10:50:32;19.00;99.90
7576;DHT22;3829;50.798;4.358;2023-07-31T10:52:58;19.00;99.90
7576;DHT22;3829;50.798;4.358;2023-07-31T10:55:32;19.10;99.90
7576;DHT22;3829;50.798;4.358;2023-07-31T10:58:06;19.20;99.90
7576;DHT22;3829;50.798;4.358;2023-07-31T11:00:32;19.30;99.90
7576;DHT22;3829;50.798;4.358;2023-07-31T11:03:04;19.30;99.90
7576;DHT22;3829;50.798;4.358;2023-07-31T11:05:48;19.30;99.90
7576;DHT22;3829;50.798;4.358;2023-07-31T11:08:25;19.20;99.90
7576;DHT22;3829;50.798;4.358;2023-07-31T11:11:06;19.10;99.90
7576;DHT22;3829;50.798;4.358;2023-07-31T11:16:11;19.20;99.90
7576;DHT22;3829;50.798;4.358;2023-07-31T11:18:39;19.40;99.90
7576;DHT22;3829;50.798;4.358;2023-07-31T11:21:05;19.50;99.90
7576;DHT22;3829;50.798;4.358;2023-07-31T11:23:31;19.30;99.90
7576;DHT22;3829;50.798;4.358;2023-07-31T11:26:00;19.30;99.90
7576;DHT22;3829;50.798;4.358;2023-07-31T11:28:32;19.30;99.90
7576;DHT22;3829;50.798;4.358;2023-07-31T11:30:58;19.40;99.90
7576;DHT22;3829;50.798;4.358;2023-07-31T11:33:23;19.20;99.90
7576;DHT22;3829;50.798;4.358;2023-07-31T11:35:49;19.30;99.90
7576;DHT22;3829;50.798;4.358;2023-07-31T11:38:26;19.40;99.90
7576;DHT22;3829;50.798;4.358;2023-07-31T11:40:54;19.60;99.90
7576;DHT22;3829;50.798;4.358;2023-07-31T11:43:20;19.50;99.90
7576;DHT22;3829;50.798;4.358;2023-07-31T11:45:51;19.50;99.90
7576;DHT22;3829;50.798;4.358;2023-07-31T11:48:23;19.40;99.90
7576;DHT22;3829;50.798;4.358;2023-07-31T11:50:51;19.60;99.90
7576;DHT22;3829;50.798;4.358;2023-07-31T11:53:22;19.50;99.90
7576;DHT22;3829;50.798;4.358;2023-07-31T11:55:49;19.50;99.90
7576;DHT22;3829;50.798;4.358;2023-07-31T11:58:16;19.50;99.90
7576;DHT22;3829;50.798;4.358;2023-07-31T12:00:43;19.60;99.90
7576;DHT22;3829;50.798;4.358;2023-07-31T12:03:09;19.90;99.90
7576;DHT22;3829;50.798;4.358;2023-07-31T12:05:36;20.10;99.90
7576;DHT22;3829;50.798;4.358;2023-07-31T12:08:10;20.50;99.90
7576;DHT22;3829;50.798;4.358;2023-07-31T12:10:37;20.50;99.90
7576;DHT22;3829;50.798;4.358;2023-07-31T12:13:08;20.50;99.90
7576;DHT22;3829;50.798;4.358;2023-07-31T12:15:39;20.70;99.90
7576;DHT22;3829;50.798;4.358;2023-07-31T12:18:07;20.80;99.90
7576;DHT22;3829;50.798;4.358;2023-07-31T12:20:33;20.90;99.90
7576;DHT22;3829;50.798;4.358;2023-07-31T12:22:59;20.60;99.90
7576;DHT22;3829;50.798;4.358;2023-07-31T12:25:29;20.50;99.90
7576;DHT22;3829;50.798;4.358;2023-07-31T12:27:55;20.40;99.90
7576;DHT22;3829;50.798;4.358;2023-07-31T12:30:29;20.30;99.90
7576;DHT22;3829;50.798;4.358;2023-07-31T12:32:57;20.20;99.90
7576;DHT22;3829;50.798;4.358;2023-07-31T12:35:23;20.20;99.90
7576;DHT22;3829;50.798;4.358;2023-07-31T12:37:48;20.10;99.90
7576;DHT22;3829;50.798;4.358;2023-07-31T12:40:14;20.10;99.90
7576;DHT22;3829;50.798;4.358;2023-07-31T12:42:41;20.10;99.90
7576;DHT22;3829;50.798;4.358;2023-07-31T12:45:07;20.10;99.90
7576;DHT22;3829;50.798;4.358;2023-07-31T12:47:33;20.30;99.90
7576;DHT22;3829;50.798;4.358;2023-07-31T12:49:58;20.70;99.90
7576;DHT22;3829;50.798;4.358;2023-07-31T12:52:24;20.90;99.90
7576;DHT22;3829;50.798;4.358;2023-07-31T12:54:49;20.70;99.90
7576;DHT22;3829;50.798;4.358;2023-07-31T12:57:15;20.50;99.90
7576;DHT22;3829;50.798;4.358;2023-07-31T12:59:40;20.50;99.90
7576;DHT22;3829;50.798;4.358;2023-07-31T13:02:06;20.10;99.90
7576;DHT22;3829;50.798;4.358;2023-07-31T13:04:32;20.00;99.90
7576;DHT22;3829;50.798;4.358;2023-07-31T13:06:57;19.80;99.90
7576;DHT22;3829;50.798;4.358;2023-07-31T13:09:23;19.60;99.90
7576;DHT22;3829;50.798;4.358;2023-07-31T13:11:49;19.50;99.90
7576;DHT22;3829;50.798;4.358;2023-07-31T13:14:14;19.30;99.90
7576;DHT22;3829;50.798;4.358;2023-07-31T13:16:40;19.10;99.90
7576;DHT22;3829;50.798;4.358;2023-07-31T13:19:05;18.90;99.90
7576;DHT22;3829;50.798;4.358;2023-07-31T13:21:31;18.80;99.90
7576;DHT22;3829;50.798;4.358;2023-07-31T13:23:56;18.70;99.90
7576;DHT22;3829;50.798;4.358;2023-07-31T13:26:24;18.60;99.90
7576;DHT22;3829;50.798;4.358;2023-07-31T13:28:50;18.60;99.90
7576;DHT22;3829;50.798;4.358;2023-07-31T13:31:15;18.50;99.90
7576;DHT22;3829;50.798;4.358;2023-07-31T13:33:41;18.50;99.90
7576;DHT22;3829;50.798;4.358;2023-07-31T13:36:06;18.50;99.90
7576;DHT22;3829;50.798;4.358;2023-07-31T13:38:32;18.50;99.90
7576;DHT22;3829;50.798;4.358;2023-07-31T13:40:58;18.50;99.90
7576;DHT22;3829;50.798;4.358;2023-07-31T13:43:24;18.40;99.90
7576;DHT22;3829;50.798;4.358;2023-07-31T13:45:49;18.50;99.90
7576;DHT22;3829;50.798;4.358;2023-07-31T13:48:15;18.50;99.90
7576;DHT22;3829;50.798;4.358;2023-07-31T13:50:41;18.50;99.90
7576;DHT22;3829;50.798;4.358;2023-07-31T13:53:06;18.50;99.90
7576;DHT22;3829;50.798;4.358;2023-07-31T13:55:32;18.40;99.90
7576;DHT22;3829;50.798;4.358;2023-07-31T13:57:57;18.30;99.90
7576;DHT22;3829;50.798;4.358;2023-07-31T14:00:23;18.30;99.90
7576;DHT22;3829;50.798;4.358;2023-07-31T14:02:48;18.30;99.90
7576;DHT22;3829;50.798;4.358;2023-07-31T14:05:14;18.30;99.90
7576;DHT22;3829;50.798;4.358;2023-07-31T14:07:39;18.10;99.90
7576;DHT22;3829;50.798;4.358;2023-07-31T14:10:05;18.20;99.90
7576;DHT22;3829;50.798;4.358;2023-07-31T14:12:31;18.20;99.90
7576;DHT22;3829;50.798;4.358;2023-07-31T14:14:57;18.30;99.90
7576;DHT22;3829;50.798;4.358;2023-07-31T14:17:22;18.30;99.90
7576;DHT22;3829;50.798;4.358;2023-07-31T14:19:48;18.30;99.90
7576;DHT22;3829;50.798;4.358;2023-07-31T14:22:13;18.30;99.90
7576;DHT22;3829;50.798;4.358;2023-07-31T14:24:39;18.20;99.90
7576;DHT22;3829;50.798;4.358;2023-07-31T14:27:05;18.10;99.90
7576;DHT22;3829;50.798;4.358;2023-07-31T14:29:30;18.10;99.90
7576;DHT22;3829;50.798;4.358;2023-07-31T14:31:56;18.20;99.90
7576;DHT22;3829;50.798;4.358;2023-07-31T14:34:21;18.30;99.90
7576;DHT22;3829;50.798;4.358;2023-07-31T14:36:47;18.20;99.90
7576;DHT22;3829;50.798;4.358;2023-07-31T14:39:13;18.20;99.90
7576;DHT22;3829;50.798;4.358;2023-07-31T14:41:38;18.30;99.90
7576;DHT22;3829;50.798;4.358;2023-07-31T14:44:04;18.30;99.90
7576;DHT22;3829;50.798;4.358;2023-07-31T14:46:29;18.20;99.90
7576;DHT22;3829;50.798;4.358;2023-07-31T14:48:55;18.20;99.90
7576;DHT22;3829;50.798;4.358;2023-07-31T14:51:21;18.20;99.90
7576;DHT22;3829;50.798;4.358;2023-07-31T14:53:46;18.30;99.90
7576;DHT22;3829;50.798;4.358;2023-07-31T14:56:12;18.20;99.90
7576;DHT22;3829;50.798;4.358;2023-07-31T14:58:38;18.20;99.90
7576;DHT22;3829;50.798;4.358;2023-07-31T15:01:03;18.20;99.90
7576;DHT22;3829;50.798;4.358;2023-07-31T15:03:29;18.10;99.90
7576;DHT22;3829;50.798;4.358;2023-07-31T15:05:54;18.10;99.90
7576;DHT22;3829;50.798;4.358;2023-07-31T15:08:20;18.10;99.90
7576;DHT22;3829;50.798;4.358;2023-07-31T15:10:46;18.10;99.90
7576;DHT22;3829;50.798;4.358;2023-07-31T15:13:12;18.10;99.90
7576;DHT22;3829;50.798;4.358;2023-07-31T15:15:37;18.10;99.90
7576;DHT22;3829;50.798;4.358;2023-07-31T15:18:03;18.00;99.90
7576;DHT22;3829;50.798;4.358;2023-07-31T15:20:28;18.10;99.90
7576;DHT22;3829;50.798;4.358;2023-07-31T15:22:55;18.10;99.90
7576;DHT22;3829;50.798;4.358;2023-07-31T15:25:20;18.10;99.90
7576;DHT22;3829;50.798;4.358;2023-07-31T15:27:46;18.10;99.90
7576;DHT22;3829;50.798;4.358;2023-07-31T15:30:12;18.10;99.90
7576;DHT22;3829;50.798;4.358;2023-07-31T15:32:38;17.90;99.90
7576;DHT22;3829;50.798;4.358;2023-07-31T15:35:05;17.90;99.90
7576;DHT22;3829;50.798;4.358;2023-07-31T15:37:30;17.90;99.90
7576;DHT22;3829;50.798;4.358;2023-07-31T15:39:56;17.90;99.90
7576;DHT22;3829;50.798;4.358;2023-07-31T15:42:21;17.90;99.90
7576;DHT22;3829;50.798;4.358;2023-07-31T15:44:47;18.00;99.90
7576;DHT22;3829;50.798;4.358;2023-07-31T15:47:13;18.10;99.90
7576;DHT22;3829;50.798;4.358;2023-07-31T15:49:38;18.10;99.90
7576;DHT22;3829;50.798;4.358;2023-07-31T15:52:04;18.00;99.90
7576;DHT22;3829;50.798;4.358;2023-07-31T15:54:30;18.00;99.90
7576;DHT22;3829;50.798;4.358;2023-07-31T15:56:56;18.00;99.90
7576;DHT22;3829;50.798;4.358;2023-07-31T15:59:21;17.90;99.90
7576;DHT22;3829;50.798;4.358;2023-07-31T16:01:47;17.80;99.90